createdAt,value
2023-01-20T00:00:25.561Z,996.00
2023-01-20T00:05:25.775Z,996.00
2023-01-20T00:10:25.390Z,996.00
2023-01-20T00:15:25.334Z,996.00
2023-01-20T00:20:25.269Z,996.00
2023-01-20T00:25:25.189Z,996.00
2023-01-20T00:30:25.239Z,996.00
2023-01-20T00:35:25.056Z,996.00
2023-01-20T00:40:25.008Z,997.00
2023-01-20T00:45:24.932Z,997.00
2023-01-20T00:50:24.876Z,997.00
2023-01-20T00:55:24.797Z,997.00
2023-01-20T01:00:24.760Z,997.00
2023-01-20T01:05:43.695Z,997.00
2023-01-20T01:10:36.121Z,997.00
2023-01-20T01:15:36.054Z,997.00
2023-01-20T01:20:35.960Z,997.00
2023-01-20T01:25:35.904Z,997.00
2023-01-20T01:30:35.887Z,997.00
2023-01-20T01:35:35.794Z,997.00
2023-01-20T01:40:35.712Z,997.00
2023-01-20T01:45:35.657Z,997.00
2023-01-20T01:50:35.581Z,997.00
2023-01-20T01:55:35.520Z,997.00
2023-01-20T02:00:35.480Z,997.00
2023-01-20T02:05:35.459Z,997.00
2023-01-20T02:10:35.357Z,997.00
2023-01-20T02:15:35.246Z,997.00
2023-01-20T02:20:35.195Z,997.00
2023-01-20T02:25:35.142Z,998.00
2023-01-20T02:30:35.089Z,998.00
2023-01-20T02:35:35.165Z,998.00
2023-01-20T02:40:34.923Z,998.00
2023-01-20T02:45:34.902Z,998.00
2023-01-20T02:50:34.793Z,998.00
2023-01-20T02:55:34.748Z,998.00
2023-01-20T03:00:34.667Z,998.00
2023-01-20T03:05:34.713Z,998.00
2023-01-20T03:10:34.535Z,998.00
2023-01-20T03:15:34.489Z,998.00
2023-01-20T03:20:34.418Z,998.00
2023-01-20T03:25:34.365Z,998.00
2023-01-20T03:30:34.357Z,998.00
2023-01-20T03:35:34.239Z,998.00
2023-01-20T03:40:34.150Z,998.00
2023-01-20T03:45:34.092Z,998.00
2023-01-20T03:50:34.019Z,998.00
2023-01-20T03:55:33.952Z,998.00
2023-01-20T04:00:33.894Z,998.00
2023-01-20T04:05:33.827Z,998.00
2023-01-20T04:10:33.740Z,998.00
2023-01-20T04:15:33.762Z,998.00
2023-01-20T04:20:33.625Z,998.00
2023-01-20T04:25:33.592Z,999.00
2023-01-20T04:30:33.507Z,999.00
2023-01-20T04:35:33.439Z,999.00
2023-01-20T04:40:33.379Z,999.00
2023-01-20T04:45:33.324Z,999.00
2023-01-20T04:50:33.232Z,999.00
2023-01-20T04:55:33.179Z,999.00
2023-01-20T05:00:33.111Z,999.00
2023-01-20T05:05:33.120Z,999.00
2023-01-20T05:10:32.980Z,999.00
2023-01-20T05:15:52.668Z,999.00
2023-01-20T05:20:45.028Z,999.00
2023-01-20T05:25:44.951Z,999.00
2023-01-20T05:30:44.930Z,999.00
2023-01-20T05:35:44.811Z,999.00
2023-01-20T05:40:44.761Z,999.00
2023-01-20T05:45:44.690Z,999.00
2023-01-20T05:50:44.639Z,999.00
2023-01-20T05:55:44.573Z,999.00
2023-01-20T06:00:44.520Z,999.00
2023-01-20T06:05:44.435Z,999.00
2023-01-20T06:10:44.522Z,999.00
2023-01-20T06:15:44.314Z,999.00
2023-01-20T06:20:44.259Z,1000.00
2023-01-20T06:25:44.269Z,1000.00
2023-01-20T06:30:44.161Z,1000.00
2023-01-20T06:35:44.044Z,1000.00
2023-01-20T06:40:43.996Z,1000.00
2023-01-20T06:45:43.913Z,1000.00
2023-01-20T06:50:43.930Z,1000.00
2023-01-20T06:55:44.626Z,1000.00
2023-01-20T07:00:43.771Z,1000.00
2023-01-20T07:05:43.735Z,1000.00
2023-01-20T07:10:43.609Z,1000.00
2023-01-20T07:15:43.532Z,1000.00
2023-01-20T07:20:43.463Z,1000.00
2023-01-20T07:25:43.404Z,1000.00
2023-01-20T07:30:43.370Z,1000.00
2023-01-20T07:35:43.283Z,1000.00
2023-01-20T07:40:43.243Z,1000.00
2023-01-20T07:45:43.206Z,1000.00
2023-01-20T07:50:43.097Z,1000.00
2023-01-20T07:55:43.018Z,1000.00
2023-01-20T08:00:42.970Z,1000.00
2023-01-20T08:05:42.874Z,1001.00
2023-01-20T08:10:42.893Z,1001.00
2023-01-20T08:15:42.765Z,1001.00
2023-01-20T08:20:42.698Z,1001.00
2023-01-20T08:25:42.686Z,1001.00
2023-01-20T08:30:42.688Z,1001.00
2023-01-20T08:35:42.638Z,1001.00
2023-01-20T08:40:42.449Z,1001.00
2023-01-20T08:45:42.416Z,1001.00
2023-01-20T08:50:42.320Z,1001.00
2023-01-20T08:55:42.245Z,1001.00
2023-01-20T09:00:42.203Z,1001.00
2023-01-20T09:05:42.120Z,1001.00
2023-01-20T09:10:42.056Z,1001.00
2023-01-20T09:15:42.097Z,1001.00
2023-01-20T09:20:41.947Z,1001.00
2023-01-20T09:25:41.850Z,1001.00
2023-01-20T09:30:41.880Z,1001.00
2023-01-20T09:35:41.738Z,1001.00
2023-01-20T09:40:41.735Z,1001.00
2023-01-20T09:45:41.600Z,1001.00
2023-01-20T09:50:41.564Z,1001.00
2023-01-20T09:55:41.430Z,1001.00
2023-01-20T10:00:41.393Z,1001.00
2023-01-20T10:05:41.348Z,1001.00
2023-01-20T10:10:41.302Z,1002.00
2023-01-20T10:15:41.242Z,1002.00
2023-01-20T10:20:41.149Z,1001.00
2023-01-20T10:25:41.068Z,1001.00
2023-01-20T10:30:41.053Z,1001.00
2023-01-20T10:35:40.936Z,1001.00
2023-01-20T10:40:40.996Z,1001.00
2023-01-20T10:45:40.803Z,1001.00
2023-01-20T10:50:40.740Z,1001.00
2023-01-20T10:55:40.774Z,1001.00
2023-01-20T11:00:40.641Z,1001.00
2023-01-20T11:05:40.516Z,1001.00
2023-01-20T11:10:40.518Z,1001.00
2023-01-20T11:15:40.408Z,1001.00
2023-01-20T11:20:40.375Z,1001.00
2023-01-20T11:25:40.268Z,1002.00
2023-01-20T11:30:40.289Z,1002.00
2023-01-20T11:35:40.153Z,1002.00
2023-01-20T11:40:40.116Z,1001.00
2023-01-20T11:45:40.058Z,1001.00
2023-01-20T11:50:39.995Z,1001.00
2023-01-20T11:55:39.890Z,1001.00
2023-01-20T12:00:39.829Z,1001.00
2023-01-20T12:05:39.740Z,1001.00
2023-01-20T12:10:39.708Z,1001.00
2023-01-20T12:15:42.740Z,1001.00
2023-01-20T12:20:54.470Z,1001.00
2023-01-20T12:25:43.362Z,1001.00
2023-01-20T12:30:43.645Z,1001.00
2023-01-20T12:35:44.416Z,1001.00
2023-01-20T12:40:43.124Z,1001.00
2023-01-20T12:45:46.434Z,1001.00
2023-01-20T12:51:03.073Z,1001.00
2023-01-20T12:56:03.328Z,1001.00
2023-01-20T13:00:44.493Z,1001.00
2023-01-20T13:06:04.224Z,1001.00
2023-01-20T13:16:52.549Z,1001.00
2023-01-20T13:21:28.551Z,1001.00
2023-01-20T13:26:28.530Z,1001.00
2023-01-20T13:31:28.543Z,1001.00
2023-01-20T13:36:28.392Z,1002.00
2023-01-20T13:41:28.331Z,1002.00
2023-01-20T13:46:28.245Z,1002.00
2023-01-20T13:51:28.235Z,1002.00
2023-01-20T13:56:28.140Z,1002.00
2023-01-20T14:01:28.112Z,1002.00
2023-01-20T14:06:28.028Z,1002.00
2023-01-20T14:11:27.929Z,1002.00
2023-01-20T14:16:28.054Z,1002.00
2023-01-20T14:21:27.791Z,1002.00
2023-01-20T14:26:27.762Z,1002.00
2023-01-20T14:31:27.769Z,1002.00
2023-01-20T14:36:27.963Z,1002.00
2023-01-20T14:41:27.780Z,1002.00
2023-01-20T14:46:27.581Z,1002.00
2023-01-20T14:51:27.417Z,1002.00
2023-01-20T14:56:27.355Z,1002.00
2023-01-20T15:01:27.351Z,1002.00
2023-01-20T15:06:27.302Z,1002.00
2023-01-20T15:11:27.164Z,1002.00
2023-01-20T15:16:27.080Z,1002.00
2023-01-20T15:21:27.032Z,1002.00
2023-01-20T15:26:26.987Z,1002.00
2023-01-20T15:31:26.966Z,1002.00
2023-01-20T15:36:26.856Z,1002.00
2023-01-20T15:41:26.828Z,1002.00
2023-01-20T15:46:26.714Z,1002.00
2023-01-20T15:51:28.063Z,1002.00
2023-01-20T15:56:26.635Z,1002.00
2023-01-20T16:01:26.544Z,1002.00
2023-01-20T16:06:26.488Z,1002.00
2023-01-20T16:11:26.416Z,1002.00
2023-01-20T16:16:29.489Z,1002.00
2023-01-20T16:21:26.281Z,1003.00
2023-01-20T16:26:26.194Z,1003.00
2023-01-20T16:31:26.231Z,1003.00
2023-01-20T16:36:26.085Z,1003.00
2023-01-20T16:41:26.021Z,1003.00
2023-01-20T16:46:25.936Z,1003.00
2023-01-20T16:51:25.917Z,1003.00
2023-01-20T16:56:25.847Z,1003.00
2023-01-20T17:01:25.730Z,1003.00
2023-01-20T17:06:25.700Z,1003.00
2023-01-20T17:11:25.612Z,1003.00
2023-01-20T17:16:25.664Z,1003.00
2023-01-20T17:21:25.519Z,1003.00
2023-01-20T17:26:25.415Z,1003.00
2023-01-20T17:31:25.451Z,1003.00
2023-01-20T17:36:25.327Z,1003.00
2023-01-20T17:41:25.212Z,1003.00
2023-01-20T17:46:25.200Z,1003.00
2023-01-20T17:51:25.096Z,1003.00
2023-01-20T17:56:25.067Z,1003.00
2023-01-20T18:01:25.020Z,1003.00
2023-01-20T18:06:24.918Z,1003.00
2023-01-20T18:11:24.877Z,1003.00
2023-01-20T18:16:24.862Z,1003.00
2023-01-20T18:21:24.716Z,1004.00
2023-01-20T18:26:24.696Z,1004.00
2023-01-20T18:31:24.702Z,1004.00
2023-01-20T18:36:24.623Z,1004.00
2023-01-20T18:41:24.464Z,1004.00
2023-01-20T18:46:24.451Z,1004.00
2023-01-20T18:51:24.323Z,1004.00
2023-01-20T18:56:24.276Z,1004.00
2023-01-20T19:01:24.227Z,1004.00
2023-01-20T19:06:24.143Z,1004.00
2023-01-20T19:11:24.081Z,1004.00
2023-01-20T19:16:24.027Z,1004.00
2023-01-20T19:21:23.938Z,1004.00
2023-01-20T19:26:23.893Z,1004.00
2023-01-20T19:31:23.912Z,1004.00
2023-01-20T19:36:23.758Z,1004.00
2023-01-20T19:41:23.750Z,1004.00
2023-01-20T19:46:23.705Z,1004.00
2023-01-20T19:51:23.566Z,1004.00
2023-01-20T19:56:23.545Z,1004.00
2023-01-20T20:01:23.570Z,1004.00
2023-01-20T20:06:23.383Z,1004.00
2023-01-20T20:11:23.305Z,1004.00
2023-01-20T20:16:23.289Z,1004.00
2023-01-20T20:21:23.214Z,1004.00
2023-01-20T20:26:23.137Z,1005.00
2023-01-20T20:31:23.123Z,1005.00
2023-01-20T20:36:23.025Z,1005.00
2023-01-20T20:41:22.943Z,1005.00
2023-01-20T20:46:22.964Z,1005.00
2023-01-20T20:51:22.943Z,1005.00
2023-01-20T20:56:22.794Z,1005.00
2023-01-20T21:01:22.771Z,1005.00
2023-01-20T21:06:22.650Z,1005.00
2023-01-20T21:11:22.566Z,1005.00
2023-01-20T21:16:22.625Z,1005.00
2023-01-20T21:21:22.426Z,1005.00
2023-01-20T21:26:22.393Z,1005.00
2023-01-20T21:31:22.383Z,1005.00
2023-01-20T21:36:22.276Z,1005.00
2023-01-20T21:41:22.164Z,1005.00
2023-01-20T21:46:22.165Z,1005.00
2023-01-20T21:51:22.037Z,1006.00
2023-01-20T21:56:22.005Z,1006.00
2023-01-20T22:01:21.920Z,1006.00
2023-01-20T22:06:21.887Z,1006.00
2023-01-20T22:11:21.782Z,1006.00
2023-01-20T22:16:21.740Z,1006.00
2023-01-20T22:21:21.667Z,1006.00
2023-01-20T22:26:21.604Z,1006.00
2023-01-20T22:31:21.558Z,1006.00
2023-01-20T22:36:21.501Z,1006.00
2023-01-20T22:41:21.407Z,1006.00
2023-01-20T22:46:21.354Z,1006.00
2023-01-20T22:51:21.318Z,1006.00
2023-01-20T22:56:21.231Z,1006.00
2023-01-20T23:01:21.184Z,1006.00
2023-01-20T23:06:21.096Z,1006.00
2023-01-20T23:11:21.028Z,1007.00
2023-01-20T23:16:20.987Z,1007.00
2023-01-20T23:21:20.943Z,1007.00
2023-01-20T23:26:20.844Z,1007.00
2023-01-20T23:31:20.857Z,1007.00
2023-01-20T23:36:20.734Z,1007.00
2023-01-20T23:41:20.608Z,1007.00
2023-01-20T23:46:20.596Z,1007.00
2023-01-20T23:51:20.564Z,1007.00
2023-01-20T23:56:20.461Z,1007.00
